Pagrindinis puslapis
METAR-TAF:

METAR-TAF

Oro uostai :

Derbis, Australija

platuma: 17-22-12S, ilguma: 123-39-38E, Aukštis: 7 m

Dabartinis oras

Ataskaita buvo paskelbta 10 minutes, ne 04:32 UTC
Vėjas 26 kt iš Rytų/Pietryčių su gūsio iki 36 kt
Temperatūra 28°C
Drėgmė 84%
Slėgis 995 hPa
Matomumas: 8000 m
Išsisklaidę debesys ne aukštis 2500 ft
Su prošvaistėmis ne aukštis 3300 ft
Apsiniaukę ne aukštis 4200 ft
lietus

METAR: YDBY 290432Z AUTO 12026G36KT 8000 -RA SCT025 BKN033 OVC042 28/25 Q0995

Laikas: 12:42 (04:42 UTC)


TAF: trūkstamas

Orai ataskaitas ir orų prognozės (METAR, TAF).

turimą stotys yra geltonos ir raudonos taškus žemėlapyje.

Perkelti pele per norėdami pamatyti stoties vardą.

Tada spustelėkite, norėdami matyti oro stebėjimo ir prognozės.

Norėdami pakeisti žemėlapį: spustelėkite ant žalios mygtukų su juodo kryžiaus žemyn,; žalią mygtuką su brūkšneliu, jei norite nutolinti; arba žalių rodyklių gretimoms žemėlapius.


METAR-TAF: